Map

Track Data

SID SEASON NUMBER BASIN SUBBASIN NAME ISO_TIME NATURE LAT LON WMO_WIND WMO_PRES WMO_AGENCY TRACK_TYPE DIST2LAND LANDFALL IFLAG USA_AGENCY USA_ATCF_ID USA_LAT USA_LON USA_RECORD USA_STATUS USA_WIND USA_PRES USA_SSHS USA_R34_NE USA_R34_SE USA_R34_SW USA_R34_NW USA_R50_NE USA_R50_SE USA_R50_SW USA_R50_NW USA_R64_NE USA_R64_SE USA_R64_SW USA_R64_NW USA_POCI USA_ROCI USA_RMW USA_EYE TOKYO_LAT TOKYO_LON TOKYO_GRADE TOKYO_WIND TOKYO_PRES TOKYO_R50_DIR TOKYO_R50_LONG TOKYO_R50_SHORT TOKYO_R30_DIR TOKYO_R30_LONG TOKYO_R30_SHORT TOKYO_LAND CMA_LAT CMA_LON CMA_CAT CMA_WIND CMA_PRES HKO_LAT HKO_LON HKO_CAT HKO_WIND HKO_PRES NEWDELHI_LAT NEWDELHI_LON NEWDELHI_GRADE NEWDELHI_WIND NEWDELHI_PRES NEWDELHI_CI NEWDELHI_DP NEWDELHI_POCI REUNION_LAT REUNION_LON REUNION_TYPE REUNION_WIND REUNION_PRES REUNION_TNUM REUNION_CI REUNION_RMW REUNION_R34_NE REUNION_R34_SE REUNION_R34_SW REUNION_R34_NW REUNION_R50_NE REUNION_R50_SE REUNION_R50_SW REUNION_R50_NW REUNION_R64_NE REUNION_R64_SE REUNION_R64_SW REUNION_R64_NW BOM_LAT BOM_LON BOM_TYPE BOM_WIND BOM_PRES BOM_TNUM BOM_CI BOM_RMW BOM_R34_NE BOM_R34_SE BOM_R34_SW BOM_R34_NW BOM_R50_NE BOM_R50_SE BOM_R50_SW BOM_R50_NW BOM_R64_NE BOM_R64_SE BOM_R64_SW BOM_R64_NW BOM_ROCI BOM_POCI BOM_EYE BOM_POS_METHOD BOM_PRES_METHOD NADI_LAT NADI_LON NADI_CAT NADI_WIND NADI_PRES WELLINGTON_LAT WELLINGTON_LON WELLINGTON_WIND WELLINGTON_PRES DS824_LAT DS824_LON DS824_STAGE DS824_WIND DS824_PRES TD9636_LAT TD9636_LON TD9636_STAGE TD9636_WIND TD9636_PRES TD9635_LAT TD9635_LON TD9635_WIND TD9635_PRES TD9635_ROCI NEUMANN_LAT NEUMANN_LON NEUMANN_CLASS NEUMANN_WIND NEUMANN_PRES MLC_LAT MLC_LON MLC_CLASS MLC_WIND MLC_PRES USA_GUST BOM_GUST BOM_GUST_PER REUNION_GUST REUNION_GUST_PER USA_SEAHGT USA_SEARAD_NE USA_SEARAD_SE USA_SEARAD_SW USA_SEARAD_NW STORM_SPEED STORM_DIR
1915062S16052 1915 9 SI MM NOT_NAMED 1915-03-03 06:00:00 NR -16.0000 52.1000 reunion main 184 174 _____O________ -1 -16.0000 52.1000 99 9.90000 2 255
1915062S16052 1915 9 SI MM NOT_NAMED 1915-03-03 09:00:00 NR -16.0198 52.0158 main 174 164 _____P________ -1 -16.0198 52.0158 99 2 257
1915062S16052 1915 9 SI MM NOT_NAMED 1915-03-03 12:00:00 NR -16.0401 51.9265 main 164 159 _____P________ -1 -16.0401 51.9265 99 2 257
1915062S16052 1915 9 SI MM NOT_NAMED 1915-03-03 15:00:00 NR -16.0614 51.8271 main 159 144 _____P________ -1 -16.0614 51.8271 99 2 283
1915062S16052 1915 9 SI MM NOT_NAMED 1915-03-03 18:00:00 NR -15.9874 51.6900 main 144 135 _____P____O___ -1 -16.0842 51.7125 99 -15.6000 51.6000 4 3 291
1915062S16052 1915 9 SI MM NOT_NAMED 1915-03-03 21:00:00 NR -15.9607 51.5574 main 135 116 _____P____P___ -1 -16.1090 51.5775 99 -15.6640 51.5171 4 3 276
1915062S16052 1915 9 SI MM NOT_NAMED 1915-03-04 00:00:00 TS -15.9553 51.3776 main 116 96 _____P___OP___ -1 -16.1363 51.4172 99 -15.9000 51.1000 TC 65 -15.7324 51.4174 4 4 266
1915062S16052 1915 9 SI MM NOT_NAMED 1915-03-04 03:00:00 TS -15.9884 51.1642 main 96 67 _____P___PP___ -1 -16.1665 51.2264 99 -15.9901 50.8000 TC 65 -15.8096 51.2840 4 5 257
1915062S16052 1915 9 SI MM NOT_NAMED 1915-03-04 06:00:00 TS -16.0636 50.9000 reunion main 72 44 _____O___OO___ -1 -16.2000 51.0000 99 9.90000 -16.1000 50.5000 TC 65 -15.9000 51.1000 4 6 252
1915062S16052 1915 9 SI MM NOT_NAMED 1915-03-04 09:00:00 TS -16.1621 50.5964 main 48 30 _____P___PP___ -1 -16.2372 50.7347 99 -16.2425 50.2000 TC 65 -16.0067 50.8544 4 6 251
1915062S16052 1915 9 SI MM NOT_NAMED 1915-03-04 12:00:00 TS -16.2685 50.2980 main 35 21 _____P___OP___ -1 -16.2780 50.4342 99 -16.4000 49.9000 TC 65 -16.1276 50.5600 4 6 250
1915062S16052 1915 9 SI MM NOT_NAMED 1915-03-04 15:00:00 TS -16.3774 49.9823 main 21 0 _____P___PP___ -1 -16.3225 50.1039 99 -16.5499 49.6074 TC 65 -16.2597 50.2356 4 7 250
1915062S16052 1915 9 SI MM NOT_NAMED 1915-03-04 18:00:00 TS -16.4902 49.6499 main 0 0 _____P___OO___ -1 -16.3706 49.7496 99 -16.7000 49.3000 TC 65 -16.4000 49.9000 4 7 250
1915062S16052 1915 9 SI MM NOT_NAMED 1915-03-04 21:00:00 TS -16.6063 49.3119 main 0 0 _____P___PP___ -1 -16.4223 49.3765 99 -16.8499 48.9649 TC 65 -16.5466 49.5943 4 7 250
1915062S16052 1915 9 SI MM NOT_NAMED 1915-03-05 00:00:00 TS -16.7258 48.9567 main 0 0 _____P___OP___ -1 -16.4778 48.9902 99 -17.0000 48.6000 TC 65 -16.6996 49.2799 4 7 251
1915062S16052 1915 9 SI MM NOT_NAMED 1915-03-05 03:00:00 TS -16.8491 48.5847 main 0 0 _____P___PP___ -1 -16.5369 48.5962 99 -17.1575 48.2075 TC 65 -16.8528 48.9505 4 8 252
1915062S16052 1915 9 SI MM NOT_NAMED 1915-03-05 06:00:00 TS -16.9667 48.2000 reunion main 0 0 _____O___OO___ -1 -16.6000 48.2000 99 9.90000 -17.3000 47.8000 TC 65 -17.0000 48.6000 4 8 254
1915062S16052 1915 9 SI MM NOT_NAMED 1915-03-05 09:00:00 TS -17.0657 47.8198 main 0 0 _____P___PP___ -1 -16.6652 47.8340 99 -17.3999 47.3999 TC 65 -17.1321 48.2254 4 8 255
1915062S16052 1915 9 SI MM NOT_NAMED 1915-03-05 12:00:00 TS -17.1640 47.4308 main 0 0 _____P___OP___ -1 -16.7347 47.4626 99 -17.5000 47.0000 TC 65 -17.2573 47.8297 4 8 254
1915062S16052 1915 9 SI MM NOT_NAMED 1915-03-05 15:00:00 TS -17.2789 47.0374 main 0 0 _____P___PP___ -1 -16.8078 47.0854 99 -17.6499 46.6075 TC 65 -17.3789 47.4192 4 8 253
1915062S16052 1915 9 SI MM NOT_NAMED 1915-03-05 18:00:00 TS -17.3945 46.6340 main 0 0 _____P___OO___ -1 -16.8836 46.7021 99 -17.8000 46.2000 TC 65 -17.5000 47.0000 4 8 254
1915062S16052 1915 9 SI MM NOT_NAMED 1915-03-05 21:00:00 TS -17.4994 46.2096 main 0 0 _____P___PP___ -1 -16.9615 46.3123 99 -17.9075 45.7424 TC 65 -17.6290 46.5740 4 8 256
1915062S16052 1915 9 SI MM NOT_NAMED 1915-03-06 00:00:00 TS -17.5994 45.7860 main 0 0 _____P___OP___ -1 -17.0407 45.9156 99 -18.0000 45.3000 TC 65 -17.7574 46.1425 4 8 256
1915062S16052 1915 9 SI MM NOT_NAMED 1915-03-06 03:00:00 TS -17.7008 45.3896 main 0 0 _____P___PP___ -1 -17.1205 45.5116 99 -18.0998 44.9424 TC 65 -17.8821 45.7147 4 8 255
1915062S16052 1915 9 SI MM NOT_NAMED 1915-03-06 06:00:00 TS -17.8000 45.0000 reunion main 0 0 _____O___OO___ -1 -17.2000 45.1000 99 9.90000 -18.2000 44.6000 TC 65 -18.0000 45.3000 4 8 256
1915062S16052 1915 9 SI MM NOT_NAMED 1915-03-06 09:00:00 TS -17.8974 44.5833 main 0 0 _____P___PP___ -1 -17.2856 44.6281 99 -18.3000 44.2075 TC 65 -18.1068 44.9144 4 8 256
1915062S16052 1915 9 SI MM NOT_NAMED 1915-03-06 12:00:00 TS -17.9931 44.1611 main 0 0 _____P___OP___ -1 -17.3724 44.1411 99 -18.4000 43.8000 TC 65 -18.2069 44.5422 4 8 257
1915062S16052 1915 9 SI MM NOT_NAMED 1915-03-06 15:00:00 TS -18.0872 43.7417 main 31 31 _____P___PP___ -1 -17.4581 43.6514 99 -18.4999 43.4000 TC 65 -18.3037 44.1738 4 8 259
1915062S16052 1915 9 SI MM NOT_NAMED 1915-03-06 18:00:00 TS -18.1421 43.3533 main 63 63 _____P___OO___ -1 -17.5407 43.1715 99 -18.6000 43.0000 TC 65 -18.4000 43.8000 4 7 262
1915062S16052 1915 9 SI MM NOT_NAMED 1915-03-06 21:00:00 TS -18.1866 42.9709 main 105 105 _____P___PP___ -1 -17.6180 42.7138 99 -18.7002 42.6001 TC 65 -18.4983 43.4134 4 8 268
1915062S16052 1915 9 SI MM NOT_NAMED 1915-03-07 00:00:00 TS -18.1685 42.5513 main 147 147 _____P___OP___ -1 -17.6882 42.2909 99 -18.8000 42.2000 TC 65 -18.5984 43.0155 4 8 279
1915062S16052 1915 9 SI MM NOT_NAMED 1915-03-07 03:00:00 NR -18.0660 42.1469 main 200 200 _____P____P___ -1 -17.7494 41.9155 99 TC -18.6992 42.6098 4 8 282
1915062S16052 1915 9 SI MM NOT_NAMED 1915-03-07 06:00:00 NR -18.0000 41.7200 reunion main 239 223 _____O____O___ -1 -17.8000 41.6000 99 9.90000 -18.8000 42.2000 4 8 287
1915062S16052 1915 9 SI MM NOT_NAMED 1915-03-07 09:00:00 NR -17.8387 41.3535 main 223 208 _____P________ -1 -17.8387 41.3535 99 4 5 284
1915062S16052 1915 9 SI MM NOT_NAMED 1915-03-07 12:00:00 NR -17.8668 41.1706 main 216 201 _____P________ -1 -17.8668 41.1706 99 4 3 261
1915062S16052 1915 9 SI MM NOT_NAMED 1915-03-07 15:00:00 NR -17.8859 41.0422 main 201 201 _____P________ -1 -17.8859 41.0422 99 4 2 261
1915062S16052 1915 9 SI MM NOT_NAMED 1915-03-07 18:00:00 NR -17.8975 40.9592 main 201 195 _____P________ -1 -17.8975 40.9592 99 1 262
1915062S16052 1915 9 SI MM NOT_NAMED 1915-03-07 21:00:00 NR -17.9033 40.9126 main 195 195 _____P________ -1 -17.9033 40.9126 99 1 264
1915062S16052 1915 9 SI MM NOT_NAMED 1915-03-08 00:00:00 NR -17.9046 40.8932 main 195 195 _____P________ -1 -17.9046 40.8932 99 0 0
1915062S16052 1915 9 SI MM NOT_NAMED 1915-03-08 03:00:00 NR -17.9031 40.8921 main 195 195 _____P________ -1 -17.9031 40.8921 99 0 0
1915062S16052 1915 9 SI MM NOT_NAMED 1915-03-08 06:00:00 NR -17.9000 40.9000 reunion main 195 _____O________ -1 -17.9000 40.9000 99 9.90000 0 0

About IBTrACS Database

This database is a web-friendly format of International Best Track Archive for Climate Stewardship (IBTrACS), a global best track data archive curated by NOAA dating back to 1842.

Updated: 2021-11-26